Time;durP1;ratioP1;P1;durP2;ratioP2;P2;SDS_P1;SDS_P2;PMS_P1;PMS_P2;Temp;Humidity;BMP_temperature;BMP_pressure;BME280_temperature;BME280_humidity;BME280_pressure;Samples;Min_cycle;Max_cycle;Signal;HPM_P1;HPM_P2
2021/11/07 00:06:54;;;;;;;0.00;0.00;;;;;;;-145.06;100.00;63404.56;10459732;28;20025;-73
2021/11/07 00:12:12;;;;;;;0.10;0.10;;;;;;;-145.06;100.00;63404.56;10475844;28;20036;-71
2021/11/07 00:17:12;;;;;;;0.00;0.00;;;;;;;-145.06;100.00;63404.56;10448902;28;20025;-71
2021/11/07 00:22:21;;;;;;;0.00;0.00;;;;;;;-145.06;100.00;63404.56;10459284;28;20017;-71
2021/11/07 00:27:31;;;;;;;0.00;0.00;;;;;;;-145.06;100.00;63404.56;10462401;28;20154;-71
2021/11/07 00:32:48;;;;;;;0.10;0.10;;;;;;;-145.06;100.00;63404.56;10469448;28;20387;-71
2021/11/07 00:37:52;;;;;;;0.00;0.00;;;;;;;-145.06;100.00;63404.56;10473077;28;20539;-71
2021/11/07 00:43:04;;;;;;;0.00;0.00;;;;;;;-145.06;100.00;63404.56;10480484;28;20024;-71
2021/11/07 00:48:23;;;;;;;0.00;0.00;;;;;;;-145.06;100.00;63404.56;10469576;28;20038;-71
2021/11/07 00:58:38;;;;;;;0.00;0.00;;;;;;;-145.06;100.00;63404.56;10466544;28;20055;-71
2021/11/07 01:03:39;;;;;;;0.10;0.10;;;;;;;-145.06;100.00;63404.56;10487773;28;20028;-71
2021/11/07 01:08:39;;;;;;;0.00;0.00;;;;;;;-145.06;100.00;63404.56;10467771;28;20382;-71
2021/11/07 01:13:40;;;;;;;0.00;0.00;;;;;;;-145.06;100.00;63404.56;10466869;28;20052;-71
2021/11/07 01:18:40;;;;;;;0.00;0.00;;;;;;;-145.06;100.00;63404.56;10476786;28;20512;-71
2021/11/07 01:24:26;;;;;;;0.10;0.10;;;;;;;-145.06;100.00;63404.56;10471359;28;20032;-71
2021/11/07 01:29:19;;;;;;;0.00;0.00;;;;;;;-145.06;100.00;63404.56;10476302;28;20275;-71
2021/11/07 01:34:40;;;;;;;0.00;0.00;;;;;;;-145.06;100.00;63404.56;10477265;28;20471;-71
2021/11/07 01:44:54;;;;;;;0.00;0.00;;;;;;;-145.06;100.00;63404.56;10473591;28;20017;-71
2021/11/07 01:49:54;;;;;;;0.00;0.00;;;;;;;-145.06;100.00;63404.56;10469933;28;20025;-71
2021/11/07 01:55:03;;;;;;;0.10;0.10;;;;;;;-145.06;100.00;63404.56;10482687;28;20021;-71
2021/11/07 02:00:13;;;;;;;0.00;0.00;;;;;;;-145.06;100.00;63404.56;10468154;28;20026;-71
2021/11/07 02:05:13;;;;;;;0.00;0.00;;;;;;;-145.06;100.00;63404.56;10468437;28;20394;-71
2021/11/07 02:10:16;;;;;;;0.00;0.00;;;;;;;-145.06;100.00;63404.56;10466108;28;20021;-71
2021/11/07 02:15:20;;;;;;;0.05;0.05;;;;;;;-145.06;100.00;63404.56;10473964;28;20267;-71
2021/11/07 02:20:24;;;;;;;0.00;0.00;;;;;;;-145.06;100.00;63404.56;10485769;28;20024;-71
2021/11/07 02:25:26;;;;;;;0.00;0.00;;;;;;;-145.06;100.00;63404.56;10479814;28;20032;-71
2021/11/07 02:30:26;;;;;;;0.00;0.00;;;;;;;-145.06;100.00;63404.56;10478141;28;20021;-71
2021/11/07 02:35:27;;;;;;;0.10;0.10;;;;;;;-145.06;100.00;63404.56;10474174;28;20032;-71
2021/11/07 02:40:28;;;;;;;0.10;0.10;;;;;;;-145.06;100.00;63404.56;10468698;28;20029;-71
2021/11/07 02:45:29;;;;;;;0.10;0.10;;;;;;;-145.06;100.00;63404.56;10481819;28;20021;-71
2021/11/07 02:50:30;;;;;;;0.10;0.10;;;;;;;-145.06;100.00;63404.56;10471556;28;20021;-71
2021/11/07 02:55:30;;;;;;;0.10;0.10;;;;;;;-145.06;100.00;63404.56;10474949;28;20391;-71
2021/11/07 03:00:33;;;;;;;0.08;0.08;;;;;;;-145.06;100.00;63404.56;10465149;28;20043;-72
2021/11/07 03:05:34;;;;;;;0.10;0.10;;;;;;;-145.06;100.00;63404.56;10473241;28;20078;-72
2021/11/07 03:10:34;;;;;;;0.08;0.08;;;;;;;-145.06;100.00;63404.56;10463759;28;20021;-73
2021/11/07 03:15:36;;;;;;;0.10;0.10;;;;;;;-145.06;100.00;63404.56;10451863;28;20139;-72
2021/11/07 03:20:36;;;;;;;0.10;0.10;;;;;;;-145.06;100.00;63404.56;10445419;28;20036;-72
2021/11/07 03:25:47;;;;;;;0.10;0.10;;;;;;;-145.06;100.00;63404.56;10473321;28;20025;-72
2021/11/07 03:31:01;;;;;;;0.00;0.00;;;;;;;-145.06;100.00;63404.56;10458337;28;20390;-72
2021/11/07 03:36:05;;;;;;;0.10;0.10;;;;;;;-145.06;100.00;63404.56;10479835;28;20074;-71
2021/11/07 03:41:05;;;;;;;0.00;0.00;;;;;;;-145.06;100.00;63404.56;10468691;28;20020;-71
2021/11/07 03:46:06;;;;;;;0.00;0.00;;;;;;;-145.06;100.00;63404.56;10487656;28;20021;-71
2021/11/07 03:51:11;;;;;;;0.10;0.10;;;;;;;-145.06;100.00;63404.56;10481726;28;20024;-71
2021/11/07 03:56:12;;;;;;;0.00;0.00;;;;;;;-145.06;100.00;63404.56;10468845;28;20032;-71
2021/11/07 04:01:13;;;;;;;0.10;0.10;;;;;;;-145.06;100.00;63404.56;10449493;28;20391;-71
2021/11/07 04:06:14;;;;;;;0.10;0.10;;;;;;;-145.06;100.00;63404.56;10469014;28;20271;-71
2021/11/07 04:11:15;;;;;;;0.00;0.00;;;;;;;-145.06;100.00;63404.56;10464285;28;20078;-71
2021/11/07 04:16:16;;;;;;;0.10;0.10;;;;;;;-145.06;100.00;63404.56;10475504;28;20091;-71
2021/11/07 04:21:16;;;;;;;0.10;0.10;;;;;;;-145.06;100.00;63404.56;10474425;28;20036;-71
2021/11/07 04:26:16;;;;;;;0.10;0.10;;;;;;;-145.06;100.00;63404.56;10480639;28;20050;-71
2021/11/07 04:31:17;;;;;;;0.10;0.10;;;;;;;-145.06;100.00;63404.56;10470119;28;20475;-71
2021/11/07 04:36:18;;;;;;;0.00;0.00;;;;;;;-145.06;100.00;63404.56;10475294;28;20120;-71
2021/11/07 04:41:19;;;;;;;0.10;0.10;;;;;;;-145.06;100.00;63404.56;10470634;28;20103;-71
2021/11/07 04:46:19;;;;;;;0.10;0.10;;;;;;;-145.06;100.00;63404.56;10465010;28;20033;-71
2021/11/07 04:51:19;;;;;;;0.10;0.10;;;;;;;-145.06;100.00;63404.56;10481321;28;20111;-71
2021/11/07 04:56:20;;;;;;;0.00;0.00;;;;;;;-145.06;100.00;63404.56;10485666;28;20447;-71
2021/11/07 05:01:20;;;;;;;0.10;0.10;;;;;;;-145.06;100.00;63404.56;10480549;28;20067;-71
2021/11/07 05:06:21;;;;;;;0.00;0.00;;;;;;;-145.06;100.00;63404.56;10469583;28;20082;-71
2021/11/07 05:11:22;;;;;;;0.10;0.10;;;;;;;-145.06;100.00;63404.56;10465803;28;20055;-71
2021/11/07 05:16:22;;;;;;;0.08;0.08;;;;;;;-145.06;100.00;63404.56;10464981;28;20063;-71
2021/11/07 05:21:23;;;;;;;0.10;0.10;;;;;;;-145.06;100.00;63404.56;10471983;28;20048;-71
2021/11/07 05:26:23;;;;;;;0.10;0.10;;;;;;;-145.06;100.00;63404.56;10445974;28;20020;-71
2021/11/07 05:31:24;;;;;;;0.00;0.00;;;;;;;-145.06;100.00;63404.56;10483807;28;20107;-71
2021/11/07 05:36:24;;;;;;;0.00;0.00;;;;;;;-145.06;100.00;63404.56;10460755;28;20076;-71
2021/11/07 05:41:25;;;;;;;0.00;0.00;;;;;;;-145.06;100.00;63404.56;10464877;28;20021;-71
2021/11/07 05:46:25;;;;;;;0.10;0.10;;;;;;;-145.06;100.00;63404.56;10465361;28;20295;-71
2021/11/07 05:51:25;;;;;;;0.00;0.00;;;;;;;-145.06;100.00;63404.56;10484915;28;20024;-71
2021/11/07 05:56:25;;;;;;;0.10;0.10;;;;;;;-145.06;100.00;63404.56;10484549;28;20290;-71
2021/11/07 06:01:26;;;;;;;0.10;0.10;;;;;;;-145.06;100.00;63404.56;10491776;28;20422;-71
2021/11/07 06:06:26;;;;;;;0.00;0.00;;;;;;;-145.06;100.00;63404.56;10478177;28;20032;-71
2021/11/07 06:11:27;;;;;;;0.00;0.00;;;;;;;-145.06;100.00;63404.56;10475410;28;20255;-71
2021/11/07 06:16:27;;;;;;;0.00;0.00;;;;;;;-145.06;100.00;63404.56;10467316;28;20070;-71
2021/11/07 06:21:28;;;;;;;0.00;0.00;;;;;;;-145.06;100.00;63404.56;10489965;28;20275;-71
2021/11/07 06:26:29;;;;;;;0.10;0.10;;;;;;;-145.06;100.00;63404.56;10477680;28;20032;-71
2021/11/07 06:31:29;;;;;;;0.00;0.00;;;;;;;-145.06;100.00;63404.56;10457933;28;20028;-71
2021/11/07 06:36:29;;;;;;;0.00;0.00;;;;;;;-145.06;100.00;63404.56;10480212;28;20109;-71
2021/11/07 06:41:30;;;;;;;0.00;0.00;;;;;;;-145.06;100.00;63404.56;10495673;28;20023;-72
2021/11/07 06:46:35;;;;;;;0.00;0.00;;;;;;;-145.06;100.00;63404.56;10458931;28;20021;-71
2021/11/07 06:51:36;;;;;;;0.00;0.00;;;;;;;-145.06;100.00;63404.56;10489651;28;20077;-71
2021/11/07 06:56:36;;;;;;;0.00;0.00;;;;;;;-145.06;100.00;63404.56;10466441;28;20127;-71
2021/11/07 07:01:37;;;;;;;0.10;0.10;;;;;;;-145.06;100.00;63404.56;10462898;28;20446;-71
2021/11/07 07:06:38;;;;;;;0.00;0.00;;;;;;;-145.06;100.00;63404.56;10480742;28;20070;-71
2021/11/07 07:11:44;;;;;;;0.00;0.00;;;;;;;-145.06;100.00;63404.56;10460750;28;20088;-71
2021/11/07 07:37:37;;;;;;;0.00;0.00;;;;;;;-145.06;100.00;63404.56;10492786;28;20028;-73
2021/11/07 07:42:37;;;;;;;0.00;0.00;;;;;;;-145.06;100.00;63404.56;10468197;28;20105;-73
2021/11/07 07:47:38;;;;;;;0.05;0.05;;;;;;;-145.06;100.00;63404.56;10481517;28;20082;-72
2021/11/07 07:52:39;;;;;;;0.00;0.00;;;;;;;-145.06;100.00;63404.56;10481662;28;20701;-71
2021/11/07 07:57:40;;;;;;;0.08;0.08;;;;;;;-145.06;100.00;63404.56;10493498;28;20101;-72
2021/11/07 08:02:41;;;;;;;0.10;0.10;;;;;;;-145.06;100.00;63404.56;10492055;28;20032;-72
2021/11/07 08:07:43;;;;;;;0.10;0.10;;;;;;;-145.06;100.00;63404.56;10463784;28;20017;-72
2021/11/07 08:12:43;;;;;;;0.00;0.00;;;;;;;-145.06;100.00;63404.56;10462234;28;20020;-71
2021/11/07 08:17:44;;;;;;;0.03;0.03;;;;;;;-145.06;100.00;63404.56;10464064;28;20032;-71
2021/11/07 08:22:44;;;;;;;0.10;0.10;;;;;;;-145.06;100.00;63404.56;10481277;28;20112;-71
2021/11/07 08:27:45;;;;;;;0.10;0.10;;;;;;;-145.06;100.00;63404.56;10477438;28;20107;-71
2021/11/07 08:32:46;;;;;;;0.10;0.10;;;;;;;-145.06;100.00;63404.56;10474508;28;20021;-71
2021/11/07 08:37:52;;;;;;;0.10;0.10;;;;;;;-145.06;100.00;63404.56;10463709;28;20016;-71
2021/11/07 08:54:21;;;;;;;0.00;0.00;;;;;;;-145.06;100.00;63404.56;10479733;28;20028;-71
2021/11/07 09:09:46;;;;;;;0.10;0.10;;;;;;;-145.06;100.00;63404.56;10426278;28;20021;-73
2021/11/07 09:14:47;;;;;;;0.03;0.03;;;;;;;-145.06;100.00;63404.56;10486356;28;20024;-73
2021/11/07 09:19:51;;;;;;;0.10;0.10;;;;;;;-145.06;100.00;63404.56;10475281;28;20025;-72
2021/11/07 09:40:11;;;;;;;0.10;0.10;;;;;;;-145.06;100.00;63404.56;10491828;28;20024;-71
2021/11/07 09:50:17;;;;;;;0.10;0.10;;;;;;;-145.06;100.00;63404.56;10491753;28;20032;-71
2021/11/07 09:55:21;;;;;;;0.10;0.10;;;;;;;-145.06;100.00;63404.56;10473357;28;20028;-71
2021/11/07 10:00:27;;;;;;;0.00;0.00;;;;;;;-145.06;100.00;63404.56;10491907;28;20427;-71
2021/11/07 10:05:27;;;;;;;0.10;0.10;;;;;;;-145.06;100.00;63404.56;10491394;28;20039;-73
2021/11/07 10:10:35;;;;;;;0.10;0.10;;;;;;;-145.06;100.00;63404.56;10491772;28;20112;-73
2021/11/07 10:15:50;;;;;;;0.10;0.10;;;;;;;-145.06;100.00;63404.56;10491326;28;20427;-73
2021/11/07 10:20:56;;;;;;;0.00;0.00;;;;;;;-145.06;100.00;63404.56;10490861;28;20036;-72
2021/11/07 10:47:41;;;;;;;0.10;0.10;;;;;;;-145.06;100.00;63404.56;10539638;28;20020;-73
2021/11/07 10:52:43;;;;;;;0.00;0.00;;;;;;;-145.06;100.00;63404.56;10514096;22;20039;-73
2021/11/07 10:57:53;;;;;;;0.00;0.00;;;;;;;-145.06;100.00;63404.56;10504848;28;20367;-73
2021/11/07 11:02:59;;;;;;;0.10;0.10;;;;;;;-145.06;100.00;63404.56;10496398;28;20020;-73
2021/11/07 11:08:01;;;;;;;0.10;0.10;;;;;;;-145.06;100.00;63404.56;10496838;28;20532;-73
2021/11/07 11:13:48;;;;;;;0.10;0.10;;;;;;;-145.06;100.00;63404.56;10496314;28;20058;-73
2021/11/07 11:40:06;;;;;;;0.10;0.10;;;;;;;-145.06;100.00;63404.56;10494807;28;20025;-74
2021/11/07 11:45:08;;;;;;;0.10;0.10;;;;;;;-145.06;100.00;63404.56;10494817;28;20372;-74
2021/11/07 12:01:20;;;;;;;0.00;0.00;;;;;;;-145.06;100.00;63404.56;10449415;28;20033;-73
2021/11/07 12:11:50;;;;;;;0.10;0.10;;;;;;;-145.06;100.00;63404.56;10493978;28;20052;-74
2021/11/07 12:17:07;;;;;;;0.10;0.10;;;;;;;-145.06;100.00;63404.56;10476577;28;20036;-74
2021/11/07 12:22:33;;;;;;;0.00;0.00;;;;;;;-145.06;100.00;63404.56;10475138;28;20078;-74
2021/11/07 12:27:52;;;;;;;0.10;0.10;;;;;;;-145.06;100.00;63404.56;10493639;28;20104;-74
2021/11/07 12:33:07;;;;;;;0.10;0.10;;;;;;;-145.06;100.00;63404.56;10476581;28;20395;-74
2021/11/07 12:43:39;;;;;;;0.10;0.10;;;;;;;-145.06;100.00;63404.56;10492698;28;20033;-75
2021/11/07 12:48:45;;;;;;;0.05;0.05;;;;;;;-145.06;100.00;63404.56;10492691;28;20047;-74
2021/11/07 12:54:05;;;;;;;0.10;0.10;;;;;;;-145.06;100.00;63404.56;10474173;28;20098;-74
2021/11/07 12:59:09;;;;;;;0.00;0.00;;;;;;;-145.06;100.00;63404.56;10474543;28;20029;-74
2021/11/07 13:04:09;;;;;;;0.07;0.07;;;;;;;-145.06;100.00;63404.56;10492275;28;20081;-74
2021/11/07 13:09:10;;;;;;;0.00;0.00;;;;;;;-145.06;100.00;63404.56;10474720;28;20038;-74
2021/11/07 13:14:19;;;;;;;0.00;0.00;;;;;;;-145.06;100.00;63404.56;10491970;28;20454;-75
2021/11/07 13:30:14;;;;;;;0.00;0.00;;;;;;;-145.06;100.00;63404.56;10469128;28;20032;-75
2021/11/07 13:35:18;;;;;;;0.00;0.00;;;;;;;-145.06;100.00;63404.56;10492507;28;20016;-75
2021/11/07 13:40:30;;;;;;;0.00;0.00;;;;;;;-145.06;100.00;63404.56;10492350;28;20036;-75
2021/11/07 13:45:33;;;;;;;0.00;0.00;;;;;;;-145.06;100.00;63404.56;10491420;28;20399;-74
2021/11/07 13:50:34;;;;;;;0.10;0.10;;;;;;;-145.06;100.00;63404.56;10490889;28;20055;-74
2021/11/07 13:55:35;;;;;;;0.00;0.00;;;;;;;-145.06;100.00;63404.56;10491065;28;20024;-74
2021/11/07 14:00:36;;;;;;;0.10;0.10;;;;;;;-145.06;100.00;63404.56;10494262;28;20029;-76
2021/11/07 14:05:40;;;;;;;0.00;0.00;;;;;;;-145.06;100.00;63404.56;10480687;28;20037;-76
2021/11/07 14:10:40;;;;;;;0.00;0.00;;;;;;;-145.06;100.00;63404.56;10481229;28;20496;-76
2021/11/07 14:15:47;;;;;;;0.00;0.00;;;;;;;-145.06;100.00;63404.56;10498257;28;20131;-75
2021/11/07 14:20:49;;;;;;;0.00;0.00;;;;;;;-145.06;100.00;63404.56;10488020;28;20030;-75
2021/11/07 14:25:58;;;;;;;0.10;0.10;;;;;;;-145.06;100.00;63404.56;10521954;28;20028;-75
2021/11/07 14:31:00;;;;;;;0.00;0.00;;;;;;;-145.06;100.00;63404.56;10540052;28;20502;-75
2021/11/07 14:36:16;;;;;;;0.00;0.00;;;;;;;-145.06;100.00;63404.56;10521558;28;20020;-75
2021/11/07 14:41:25;;;;;;;0.10;0.10;;;;;;;-145.06;100.00;63404.56;10539729;28;20402;-75
2021/11/07 14:46:37;;;;;;;0.00;0.00;;;;;;;-145.06;100.00;63404.56;10539580;28;20020;-75
2021/11/07 14:52:01;;;;;;;0.00;0.00;;;;;;;-145.06;100.00;63404.56;10529479;28;20023;-75
2021/11/07 14:58:14;;;;;;;0.00;0.00;;;;;;;-145.06;100.00;63404.56;10456055;28;20028;-75
2021/11/07 15:07:52;;;;;;;0.00;0.00;;;;;;;-145.06;100.00;63404.56;10455682;28;20186;-74
2021/11/07 15:23:42;;;;;;;0.00;0.00;;;;;;;-145.06;100.00;63404.56;10485457;28;20038;-74
2021/11/07 15:28:43;;;;;;;0.10;0.10;;;;;;;-145.06;100.00;63404.56;10478210;28;20029;-74
2021/11/07 15:33:46;;;;;;;0.00;0.00;;;;;;;-145.06;100.00;63404.56;10477429;28;20046;-74
2021/11/07 15:39:01;;;;;;;0.00;0.00;;;;;;;-145.06;100.00;63404.56;10477655;28;20022;-75
2021/11/07 15:44:04;;;;;;;0.00;0.00;;;;;;;-145.06;100.00;63404.56;10476827;28;20111;-75
2021/11/07 15:49:05;;;;;;;0.00;0.00;;;;;;;-145.06;100.00;63404.56;10477635;28;20103;-74
2021/11/07 16:19:58;;;;;;;0.00;0.00;;;;;;;-145.06;100.00;63404.56;10494918;28;20287;-74
2021/11/07 16:25:00;;;;;;;0.00;0.00;;;;;;;-145.06;100.00;63404.56;10492449;28;20027;-74
2021/11/07 16:30:03;;;;;;;0.00;0.00;;;;;;;-145.06;100.00;63404.56;10487158;28;20013;-74
2021/11/07 16:45:12;;;;;;;0.00;0.00;;;;;;;-145.06;100.00;63404.56;10534953;28;20486;-74
2021/11/07 16:50:17;;;;;;;0.00;0.00;;;;;;;-145.06;100.00;63404.56;10556303;22;20031;-84
2021/11/07 16:55:36;;;;;;;0.00;0.00;;;;;;;-145.06;100.00;63404.56;10442930;28;20029;-86
2021/11/07 17:00:41;;;;;;;0.00;0.00;;;;;;;-145.06;100.00;63404.56;10452099;28;20024;-86
2021/11/07 17:05:48;;;;;;;0.00;0.00;;;;;;;-145.06;100.00;63404.56;10453952;28;20455;-86
2021/11/07 17:10:49;;;;;;;0.00;0.00;;;;;;;-145.06;100.00;63404.56;10453743;28;20031;-86
2021/11/07 17:15:54;;;;;;;0.00;0.00;;;;;;;-145.06;100.00;63404.56;10452091;28;20024;-86
2021/11/07 17:21:01;;;;;;;0.00;0.00;;;;;;;-145.06;100.00;63404.56;10452192;28;20451;-87
2021/11/07 17:26:17;;;;;;;0.00;0.00;;;;;;;-145.06;100.00;63404.56;10467952;28;20057;-85
2021/11/07 17:57:35;;;;;;;0.00;0.00;;;;;;;-145.06;100.00;63404.56;10451169;28;20040;-92
2021/11/07 18:02:36;;;;;;;0.10;0.10;;;;;;;-145.06;100.00;63404.56;10428801;28;20021;-92
2021/11/07 18:07:47;;;;;;;0.10;0.10;;;;;;;-145.06;100.00;63404.56;10425238;28;20078;-91
2021/11/07 18:12:51;;;;;;;0.00;0.00;;;;;;;-145.06;100.00;63404.56;10429039;28;20021;-91
2021/11/07 18:17:52;;;;;;;0.10;0.10;;;;;;;-145.06;100.00;63404.56;10434369;28;20029;-90
2021/11/07 18:22:54;;;;;;;0.00;0.00;;;;;;;-145.06;100.00;63404.56;10438362;28;20013;-89
2021/11/07 18:27:55;;;;;;;0.00;0.00;;;;;;;-145.06;100.00;63404.56;10446063;28;20009;-90
2021/11/07 18:32:56;;;;;;;0.00;0.00;;;;;;;-145.06;100.00;63404.56;10424120;28;20039;-92
2021/11/07 18:37:59;;;;;;;0.00;0.00;;;;;;;-145.06;100.00;63404.56;10421806;28;20472;-88
2021/11/07 18:42:59;;;;;;;0.00;0.00;;;;;;;-145.06;100.00;63404.56;10419542;28;20027;-91
2021/11/07 18:47:59;;;;;;;0.00;0.00;;;;;;;-145.06;100.00;63404.56;10421045;28;20027;-91
2021/11/07 18:53:00;;;;;;;0.00;0.00;;;;;;;-145.06;100.00;63404.56;10456232;28;20082;-90
2021/11/07 18:58:00;;;;;;;0.00;0.00;;;;;;;-145.06;100.00;63404.56;10484954;28;20051;-90
2021/11/07 19:03:02;;;;;;;0.00;0.00;;;;;;;-145.06;100.00;63404.56;10483628;28;20507;-90
2021/11/07 19:08:04;;;;;;;0.00;0.00;;;;;;;-145.06;100.00;63404.56;10466232;28;20025;-90
2021/11/07 19:13:05;;;;;;;0.00;0.00;;;;;;;-145.06;100.00;63404.56;10414238;28;20161;-90
2021/11/07 19:18:05;;;;;;;0.00;0.00;;;;;;;-145.06;100.00;63404.56;10428056;28;20024;-91
2021/11/07 19:23:07;;;;;;;0.00;0.00;;;;;;;-145.06;100.00;63404.56;10436342;28;20119;-92
2021/11/07 19:28:08;;;;;;;0.03;0.03;;;;;;;-145.06;100.00;63404.56;10429996;28;20115;-90
2021/11/07 19:33:11;;;;;;;0.00;0.00;;;;;;;-145.06;100.00;63404.56;10453043;28;20121;-91
2021/11/07 19:38:11;;;;;;;0.00;0.00;;;;;;;-145.06;100.00;63404.56;10440620;28;20543;-89
2021/11/07 19:43:12;;;;;;;0.00;0.00;;;;;;;-145.06;100.00;63404.56;10424796;28;20036;-91
2021/11/07 19:48:15;;;;;;;0.05;0.05;;;;;;;-145.06;100.00;63404.56;10427944;28;20074;-91
2021/11/07 19:53:16;;;;;;;0.00;0.00;;;;;;;-145.06;100.00;63404.56;10429122;28;21075;-89
2021/11/07 19:58:17;;;;;;;0.00;0.00;;;;;;;-145.06;100.00;63404.56;10422899;28;20029;-90
2021/11/07 20:03:36;;;;;;;0.00;0.00;;;;;;;-145.06;100.00;63404.56;10419744;28;20032;-90
2021/11/07 20:09:37;;;;;;;0.00;0.00;;;;;;;-145.06;100.00;63404.56;10422866;28;20473;-92
2021/11/07 20:14:07;;;;;;;0.00;0.00;;;;;;;-145.06;100.00;63404.56;10431004;28;20033;-92
2021/11/07 20:19:07;;;;;;;0.00;0.00;;;;;;;-145.06;100.00;63404.56;10416732;28;20013;-92
2021/11/07 20:24:08;;;;;;;0.00;0.00;;;;;;;-145.06;100.00;63404.56;10426433;28;20112;-92
2021/11/07 20:29:11;;;;;;;0.00;0.00;;;;;;;-145.06;100.00;63404.56;10417256;28;20048;-92
2021/11/07 20:34:19;;;;;;;0.10;0.10;;;;;;;-145.06;100.00;63404.56;10417849;28;20100;-91
2021/11/07 20:39:24;;;;;;;0.08;0.08;;;;;;;-145.06;100.00;63404.56;10418396;28;20021;-92
2021/11/07 20:54:40;;;;;;;0.10;0.10;;;;;;;-145.06;100.00;63404.56;10440892;28;20408;-91
2021/11/07 21:04:51;;;;;;;0.00;0.00;;;;;;;-145.06;100.00;63404.56;10437250;28;20108;-91
2021/11/07 21:09:58;;;;;;;0.00;0.00;;;;;;;-145.06;100.00;63404.56;10435172;28;20088;-91
2021/11/07 21:15:13;;;;;;;0.00;0.00;;;;;;;-145.06;100.00;63404.56;10417711;28;20016;-91
2021/11/07 21:30:54;;;;;;;0.00;0.00;;;;;;;-145.06;100.00;63404.56;10431786;28;20017;-92
2021/11/07 21:41:33;;;;;;;0.00;0.00;;;;;;;-145.06;100.00;63404.56;10433876;28;20544;-90
2021/11/07 21:46:37;;;;;;;0.00;0.00;;;;;;;-145.06;100.00;63404.56;10417866;28;20087;-92
2021/11/07 21:51:37;;;;;;;0.00;0.00;;;;;;;-145.06;100.00;63404.56;10416691;28;20032;-92
2021/11/07 21:56:38;;;;;;;0.00;0.00;;;;;;;-145.06;100.00;63404.56;10421812;28;20018;-92
2021/11/07 22:01:39;;;;;;;0.00;0.00;;;;;;;-145.06;100.00;63404.56;10412353;28;20045;-92
2021/11/07 22:06:41;;;;;;;0.00;0.00;;;;;;;-145.06;100.00;63404.56;10415437;28;20025;-91
2021/11/07 22:11:44;;;;;;;0.00;0.00;;;;;;;-145.06;100.00;63404.56;10412477;28;20009;-90
2021/11/07 22:17:00;;;;;;;0.00;0.00;;;;;;;-145.06;100.00;63404.56;10430150;28;20022;-92
2021/11/07 22:22:08;;;;;;;0.00;0.00;;;;;;;-145.06;100.00;63404.56;10426701;28;20013;-92
2021/11/07 22:27:10;;;;;;;0.00;0.00;;;;;;;-145.06;100.00;63404.56;10428275;28;20039;-92
2021/11/07 22:32:18;;;;;;;0.00;0.00;;;;;;;-145.06;100.00;63404.56;10436860;28;20039;-92
2021/11/07 22:37:22;;;;;;;0.10;0.10;;;;;;;-145.06;100.00;63404.56;10440980;28;20440;-91
2021/11/07 22:42:25;;;;;;;0.00;0.00;;;;;;;-145.06;100.00;63404.56;10418586;28;20100;-92
2021/11/07 22:47:45;;;;;;;0.00;0.00;;;;;;;-145.06;100.00;63404.56;10425298;28;20021;-91
2021/11/07 23:08:51;;;;;;;0.00;0.00;;;;;;;-145.06;100.00;63404.56;10411185;28;20113;-92
2021/11/07 23:13:54;;;;;;;0.00;0.00;;;;;;;-145.06;100.00;63404.56;10420791;28;20021;-92
2021/11/07 23:18:55;;;;;;;0.00;0.00;;;;;;;-145.06;100.00;63404.56;10418734;28;20469;-92
2021/11/07 23:23:57;;;;;;;0.00;0.00;;;;;;;-145.06;100.00;63404.56;10435268;28;20029;-92
2021/11/07 23:29:04;;;;;;;0.10;0.10;;;;;;;-145.06;100.00;63404.56;10421742;28;20108;-92
2021/11/07 23:34:09;;;;;;;0.00;0.00;;;;;;;-145.06;100.00;63404.56;10416713;28;20424;-92
2021/11/07 23:39:15;;;;;;;0.10;0.10;;;;;;;-145.06;100.00;63404.56;10415428;28;20076;-92
2021/11/07 23:44:18;;;;;;;0.00;0.00;;;;;;;-145.06;100.00;63404.56;10423852;28;20503;-90
2021/11/07 23:49:20;;;;;;;0.00;0.00;;;;;;;-145.06;100.00;63404.56;10416971;28;20021;-91
2021/11/07 23:54:28;;;;;;;0.10;0.10;;;;;;;-145.06;100.00;63404.56;10427379;28;20075;-92
2021/11/07 23:59:29;;;;;;;0.10;0.10;;;;;;;-145.06;100.00;63404.56;10416727;28;20017;-91
